sensor_id;sensor_type;location;lat;lon;timestamp;temperature;humidity
5457;DHT22;2751;49.802;9.944;2022-12-07T00:01:43;3.40;99.90
5457;DHT22;2751;49.802;9.944;2022-12-07T00:04:13;3.50;99.90
5457;DHT22;2751;49.802;9.944;2022-12-07T00:06:42;3.50;99.90
5457;DHT22;2751;49.802;9.944;2022-12-07T00:09:11;3.50;99.90
5457;DHT22;2751;49.802;9.944;2022-12-07T00:11:38;3.60;99.90
5457;DHT22;2751;49.802;9.944;2022-12-07T00:14:07;3.60;99.90
5457;DHT22;2751;49.802;9.944;2022-12-07T00:16:37;3.60;99.90
5457;DHT22;2751;49.802;9.944;2022-12-07T00:19:04;3.60;99.90
5457;DHT22;2751;49.802;9.944;2022-12-07T00:21:33;3.60;99.90
5457;DHT22;2751;49.802;9.944;2022-12-07T00:24:00;3.60;99.90
5457;DHT22;2751;49.802;9.944;2022-12-07T00:26:29;3.60;99.90
5457;DHT22;2751;49.802;9.944;2022-12-07T00:28:57;3.80;99.90
5457;DHT22;2751;49.802;9.944;2022-12-07T00:31:27;3.70;99.90
5457;DHT22;2751;49.802;9.944;2022-12-07T00:33:57;4.10;99.90
5457;DHT22;2751;49.802;9.944;2022-12-07T00:36:24;4.00;99.90
5457;DHT22;2751;49.802;9.944;2022-12-07T00:38:52;3.60;99.90
5457;DHT22;2751;49.802;9.944;2022-12-07T00:41:20;3.80;99.90
5457;DHT22;2751;49.802;9.944;2022-12-07T00:43:48;4.00;99.90
5457;DHT22;2751;49.802;9.944;2022-12-07T00:46:16;3.70;99.90
5457;DHT22;2751;49.802;9.944;2022-12-07T00:48:44;3.70;99.90
5457;DHT22;2751;49.802;9.944;2022-12-07T00:51:14;3.90;99.90
5457;DHT22;2751;49.802;9.944;2022-12-07T00:53:42;3.90;99.90
5457;DHT22;2751;49.802;9.944;2022-12-07T00:56:11;3.90;99.90
5457;DHT22;2751;49.802;9.944;2022-12-07T00:58:39;3.60;99.90
5457;DHT22;2751;49.802;9.944;2022-12-07T01:01:08;3.60;99.90
5457;DHT22;2751;49.802;9.944;2022-12-07T01:03:37;3.70;99.90
5457;DHT22;2751;49.802;9.944;2022-12-07T01:06:17;4.00;99.90
5457;DHT22;2751;49.802;9.944;2022-12-07T01:08:50;3.60;99.90
5457;DHT22;2751;49.802;9.944;2022-12-07T01:11:22;3.50;99.90
5457;DHT22;2751;49.802;9.944;2022-12-07T01:13:57;3.50;99.90
5457;DHT22;2751;49.802;9.944;2022-12-07T01:16:29;3.80;99.90
5457;DHT22;2751;49.802;9.944;2022-12-07T01:19:08;3.50;99.90
5457;DHT22;2751;49.802;9.944;2022-12-07T01:21:42;3.60;99.90
5457;DHT22;2751;49.802;9.944;2022-12-07T01:24:10;3.70;99.90
5457;DHT22;2751;49.802;9.944;2022-12-07T01:26:37;3.60;99.90
5457;DHT22;2751;49.802;9.944;2022-12-07T01:29:05;3.90;99.90
5457;DHT22;2751;49.802;9.944;2022-12-07T01:31:32;3.60;99.90
5457;DHT22;2751;49.802;9.944;2022-12-07T01:33:59;3.60;99.90
5457;DHT22;2751;49.802;9.944;2022-12-07T01:36:30;3.60;99.90
5457;DHT22;2751;49.802;9.944;2022-12-07T01:39:00;3.70;99.90
5457;DHT22;2751;49.802;9.944;2022-12-07T01:41:29;3.90;99.90
5457;DHT22;2751;49.802;9.944;2022-12-07T01:44:13;3.60;99.90
5457;DHT22;2751;49.802;9.944;2022-12-07T01:46:41;3.60;99.90
5457;DHT22;2751;49.802;9.944;2022-12-07T01:49:10;3.60;99.90
5457;DHT22;2751;49.802;9.944;2022-12-07T01:51:40;3.60;99.90
5457;DHT22;2751;49.802;9.944;2022-12-07T01:54:10;3.60;99.90
5457;DHT22;2751;49.802;9.944;2022-12-07T01:56:39;3.60;99.90
5457;DHT22;2751;49.802;9.944;2022-12-07T01:59:06;3.90;99.90
5457;DHT22;2751;49.802;9.944;2022-12-07T02:01:34;3.60;99.90
5457;DHT22;2751;49.802;9.944;2022-12-07T02:04:01;3.70;99.90
5457;DHT22;2751;49.802;9.944;2022-12-07T02:06:29;3.70;99.90
5457;DHT22;2751;49.802;9.944;2022-12-07T02:08:56;3.70;99.90
5457;DHT22;2751;49.802;9.944;2022-12-07T02:11:24;3.70;99.90
5457;DHT22;2751;49.802;9.944;2022-12-07T02:13:54;3.70;99.90
5457;DHT22;2751;49.802;9.944;2022-12-07T02:16:29;4.10;99.90
5457;DHT22;2751;49.802;9.944;2022-12-07T02:19:11;4.00;99.90
5457;DHT22;2751;49.802;9.944;2022-12-07T02:21:48;3.70;99.90
5457;DHT22;2751;49.802;9.944;2022-12-07T02:24:35;3.90;99.90
5457;DHT22;2751;49.802;9.944;2022-12-07T02:27:38;4.20;99.90
5457;DHT22;2751;49.802;9.944;2022-12-07T02:30:11;4.00;99.90
5457;DHT22;2751;49.802;9.944;2022-12-07T02:32:44;3.70;99.90
5457;DHT22;2751;49.802;9.944;2022-12-07T02:35:17;3.70;99.90
5457;DHT22;2751;49.802;9.944;2022-12-07T02:37:51;3.70;99.90
5457;DHT22;2751;49.802;9.944;2022-12-07T02:40:24;3.70;99.90
5457;DHT22;2751;49.802;9.944;2022-12-07T02:42:57;3.60;99.90
5457;DHT22;2751;49.802;9.944;2022-12-07T02:45:29;3.60;99.90
5457;DHT22;2751;49.802;9.944;2022-12-07T02:47:59;3.90;99.90
5457;DHT22;2751;49.802;9.944;2022-12-07T02:50:27;3.60;99.90
5457;DHT22;2751;49.802;9.944;2022-12-07T02:52:57;3.50;99.90
5457;DHT22;2751;49.802;9.944;2022-12-07T02:55:28;3.70;99.90
5457;DHT22;2751;49.802;9.944;2022-12-07T02:58:13;3.50;99.90
5457;DHT22;2751;49.802;9.944;2022-12-07T03:00:52;3.60;99.90
5457;DHT22;2751;49.802;9.944;2022-12-07T03:03:22;3.60;99.90
5457;DHT22;2751;49.802;9.944;2022-12-07T03:06:01;3.60;99.90
5457;DHT22;2751;49.802;9.944;2022-12-07T03:08:39;3.60;99.90
5457;DHT22;2751;49.802;9.944;2022-12-07T03:11:10;3.60;99.90
5457;DHT22;2751;49.802;9.944;2022-12-07T03:13:41;3.60;99.90
5457;DHT22;2751;49.802;9.944;2022-12-07T03:16:15;3.60;99.90
5457;DHT22;2751;49.802;9.944;2022-12-07T03:18:46;3.90;99.90
5457;DHT22;2751;49.802;9.944;2022-12-07T03:21:19;3.60;99.90
5457;DHT22;2751;49.802;9.944;2022-12-07T03:23:51;3.50;99.90
5457;DHT22;2751;49.802;9.944;2022-12-07T03:26:19;3.50;99.90
5457;DHT22;2751;49.802;9.944;2022-12-07T03:28:52;3.50;99.90
5457;DHT22;2751;49.802;9.944;2022-12-07T03:31:23;3.80;99.90
5457;DHT22;2751;49.802;9.944;2022-12-07T03:33:58;3.50;99.90
5457;DHT22;2751;49.802;9.944;2022-12-07T03:36:29;3.50;99.90
5457;DHT22;2751;49.802;9.944;2022-12-07T03:39:03;3.50;99.90
5457;DHT22;2751;49.802;9.944;2022-12-07T03:41:32;3.50;99.90
5457;DHT22;2751;49.802;9.944;2022-12-07T03:44:00;3.50;99.90
5457;DHT22;2751;49.802;9.944;2022-12-07T03:46:36;3.50;99.90
5457;DHT22;2751;49.802;9.944;2022-12-07T03:49:10;3.50;99.90
5457;DHT22;2751;49.802;9.944;2022-12-07T03:51:42;3.80;99.90
5457;DHT22;2751;49.802;9.944;2022-12-07T03:54:14;3.60;99.90
5457;DHT22;2751;49.802;9.944;2022-12-07T03:56:43;3.90;99.90
5457;DHT22;2751;49.802;9.944;2022-12-07T03:59:12;3.70;99.90
5457;DHT22;2751;49.802;9.944;2022-12-07T04:01:42;3.60;99.90
5457;DHT22;2751;49.802;9.944;2022-12-07T04:04:09;3.60;99.90
5457;DHT22;2751;49.802;9.944;2022-12-07T04:06:36;3.60;99.90
5457;DHT22;2751;49.802;9.944;2022-12-07T04:09:03;3.60;99.90
5457;DHT22;2751;49.802;9.944;2022-12-07T04:11:30;3.60;99.90
5457;DHT22;2751;49.802;9.944;2022-12-07T04:13:57;3.60;99.90
5457;DHT22;2751;49.802;9.944;2022-12-07T04:16:43;3.70;99.90
5457;DHT22;2751;49.802;9.944;2022-12-07T04:19:10;3.70;99.90
5457;DHT22;2751;49.802;9.944;2022-12-07T04:21:40;4.10;99.90
5457;DHT22;2751;49.802;9.944;2022-12-07T04:24:07;3.70;99.90
5457;DHT22;2751;49.802;9.944;2022-12-07T04:26:34;3.70;99.90
5457;DHT22;2751;49.802;9.944;2022-12-07T04:29:00;3.70;99.90
5457;DHT22;2751;49.802;9.944;2022-12-07T04:31:27;3.60;99.90
5457;DHT22;2751;49.802;9.944;2022-12-07T04:33:56;3.60;99.90
5457;DHT22;2751;49.802;9.944;2022-12-07T04:36:22;3.60;99.90
5457;DHT22;2751;49.802;9.944;2022-12-07T04:38:53;3.60;99.90
5457;DHT22;2751;49.802;9.944;2022-12-07T04:41:21;3.60;99.90
5457;DHT22;2751;49.802;9.944;2022-12-07T04:43:54;3.90;99.90
5457;DHT22;2751;49.802;9.944;2022-12-07T04:46:22;3.60;99.90
5457;DHT22;2751;49.802;9.944;2022-12-07T04:48:49;3.60;99.90
5457;DHT22;2751;49.802;9.944;2022-12-07T04:51:19;4.00;99.90
5457;DHT22;2751;49.802;9.944;2022-12-07T04:53:47;3.70;99.90
5457;DHT22;2751;49.802;9.944;2022-12-07T04:56:15;4.20;99.90
5457;DHT22;2751;49.802;9.944;2022-12-07T04:58:43;3.70;99.90
5457;DHT22;2751;49.802;9.944;2022-12-07T05:01:11;3.70;99.90
5457;DHT22;2751;49.802;9.944;2022-12-07T05:03:41;3.70;99.90
5457;DHT22;2751;49.802;9.944;2022-12-07T05:06:08;3.70;99.90
5457;DHT22;2751;49.802;9.944;2022-12-07T05:08:36;3.70;99.90
5457;DHT22;2751;49.802;9.944;2022-12-07T05:11:04;3.70;99.90
5457;DHT22;2751;49.802;9.944;2022-12-07T05:13:32;3.70;99.90
5457;DHT22;2751;49.802;9.944;2022-12-07T05:16:01;4.10;99.90
5457;DHT22;2751;49.802;9.944;2022-12-07T05:18:27;3.90;99.90
5457;DHT22;2751;49.802;9.944;2022-12-07T05:20:54;4.20;99.90
5457;DHT22;2751;49.802;9.944;2022-12-07T05:23:21;3.80;99.90
5457;DHT22;2751;49.802;9.944;2022-12-07T05:25:49;3.80;99.90
5457;DHT22;2751;49.802;9.944;2022-12-07T05:28:16;3.80;99.90
5457;DHT22;2751;49.802;9.944;2022-12-07T05:30:43;4.10;99.90
5457;DHT22;2751;49.802;9.944;2022-12-07T05:33:10;3.80;99.90
5457;DHT22;2751;49.802;9.944;2022-12-07T05:35:37;3.80;99.90
5457;DHT22;2751;49.802;9.944;2022-12-07T05:38:04;3.90;99.90
5457;DHT22;2751;49.802;9.944;2022-12-07T05:40:31;3.70;99.90
5457;DHT22;2751;49.802;9.944;2022-12-07T05:43:00;3.70;99.90
5457;DHT22;2751;49.802;9.944;2022-12-07T05:45:26;3.80;99.90
5457;DHT22;2751;49.802;9.944;2022-12-07T05:47:53;3.80;99.90
5457;DHT22;2751;49.802;9.944;2022-12-07T05:50:20;3.70;99.90
5457;DHT22;2751;49.802;9.944;2022-12-07T05:52:47;3.70;99.90
5457;DHT22;2751;49.802;9.944;2022-12-07T05:55:14;3.70;99.90
5457;DHT22;2751;49.802;9.944;2022-12-07T05:57:41;3.70;99.90
5457;DHT22;2751;49.802;9.944;2022-12-07T06:00:29;3.70;99.90
5457;DHT22;2751;49.802;9.944;2022-12-07T06:02:57;4.10;99.90
5457;DHT22;2751;49.802;9.944;2022-12-07T06:05:24;3.70;99.90
5457;DHT22;2751;49.802;9.944;2022-12-07T06:07:51;3.70;99.90
5457;DHT22;2751;49.802;9.944;2022-12-07T06:10:18;3.80;99.90
5457;DHT22;2751;49.802;9.944;2022-12-07T06:12:45;3.80;99.90
5457;DHT22;2751;49.802;9.944;2022-12-07T06:15:12;3.60;99.90
5457;DHT22;2751;49.802;9.944;2022-12-07T06:17:41;3.60;99.90
5457;DHT22;2751;49.802;9.944;2022-12-07T06:20:10;3.60;99.90
5457;DHT22;2751;49.802;9.944;2022-12-07T06:22:37;3.60;99.90
5457;DHT22;2751;49.802;9.944;2022-12-07T06:25:05;3.60;99.90
5457;DHT22;2751;49.802;9.944;2022-12-07T06:27:38;3.60;99.90
5457;DHT22;2751;49.802;9.944;2022-12-07T06:30:06;3.60;99.90
5457;DHT22;2751;49.802;9.944;2022-12-07T06:32:36;3.60;99.90
5457;DHT22;2751;49.802;9.944;2022-12-07T06:35:05;3.60;99.90
5457;DHT22;2751;49.802;9.944;2022-12-07T06:37:32;3.70;99.90
5457;DHT22;2751;49.802;9.944;2022-12-07T06:39:59;3.70;99.90
5457;DHT22;2751;49.802;9.944;2022-12-07T06:42:27;3.70;99.90
5457;DHT22;2751;49.802;9.944;2022-12-07T06:44:54;3.70;99.90
5457;DHT22;2751;49.802;9.944;2022-12-07T06:47:21;4.00;99.90
5457;DHT22;2751;49.802;9.944;2022-12-07T06:49:48;3.80;99.90
5457;DHT22;2751;49.802;9.944;2022-12-07T06:52:17;3.80;99.90
5457;DHT22;2751;49.802;9.944;2022-12-07T06:54:44;3.90;99.90
5457;DHT22;2751;49.802;9.944;2022-12-07T06:57:11;3.90;99.90
5457;DHT22;2751;49.802;9.944;2022-12-07T06:59:38;3.80;99.90
5457;DHT22;2751;49.802;9.944;2022-12-07T07:02:05;3.80;99.90
5457;DHT22;2751;49.802;9.944;2022-12-07T07:04:36;3.80;99.90
5457;DHT22;2751;49.802;9.944;2022-12-07T07:07:04;3.90;99.90
5457;DHT22;2751;49.802;9.944;2022-12-07T07:09:33;4.10;99.90
5457;DHT22;2751;49.802;9.944;2022-12-07T07:12:00;4.00;99.90
5457;DHT22;2751;49.802;9.944;2022-12-07T07:14:27;3.90;99.90
5457;DHT22;2751;49.802;9.944;2022-12-07T07:16:57;4.40;99.90
5457;DHT22;2751;49.802;9.944;2022-12-07T07:19:24;4.00;99.90
5457;DHT22;2751;49.802;9.944;2022-12-07T07:21:51;4.30;99.90
5457;DHT22;2751;49.802;9.944;2022-12-07T07:24:18;4.00;99.90
5457;DHT22;2751;49.802;9.944;2022-12-07T07:26:46;3.90;99.90
5457;DHT22;2751;49.802;9.944;2022-12-07T07:29:13;4.00;99.90
5457;DHT22;2751;49.802;9.944;2022-12-07T07:31:40;4.30;99.90
5457;DHT22;2751;49.802;9.944;2022-12-07T07:34:10;4.00;99.90
5457;DHT22;2751;49.802;9.944;2022-12-07T07:36:37;4.00;99.90
5457;DHT22;2751;49.802;9.944;2022-12-07T07:39:04;4.00;99.90
5457;DHT22;2751;49.802;9.944;2022-12-07T07:41:31;4.40;99.90
5457;DHT22;2751;49.802;9.944;2022-12-07T07:43:59;4.30;99.90
5457;DHT22;2751;49.802;9.944;2022-12-07T07:46:26;4.10;99.90
5457;DHT22;2751;49.802;9.944;2022-12-07T07:48:53;3.90;99.90
5457;DHT22;2751;49.802;9.944;2022-12-07T07:51:20;4.30;99.90
5457;DHT22;2751;49.802;9.944;2022-12-07T07:53:50;4.00;99.90
5457;DHT22;2751;49.802;9.944;2022-12-07T07:56:17;4.40;99.90
5457;DHT22;2751;49.802;9.944;2022-12-07T07:58:44;4.10;99.90
5457;DHT22;2751;49.802;9.944;2022-12-07T08:01:12;4.50;99.90
5457;DHT22;2751;49.802;9.944;2022-12-07T08:03:43;4.00;99.90
5457;DHT22;2751;49.802;9.944;2022-12-07T08:06:10;4.10;99.90
5457;DHT22;2751;49.802;9.944;2022-12-07T08:08:37;4.10;99.90
5457;DHT22;2751;49.802;9.944;2022-12-07T08:11:05;4.40;99.90
5457;DHT22;2751;49.802;9.944;2022-12-07T08:13:32;4.10;99.90
5457;DHT22;2751;49.802;9.944;2022-12-07T08:16:03;4.60;99.90
5457;DHT22;2751;49.802;9.944;2022-12-07T08:18:37;4.20;99.90
5457;DHT22;2751;49.802;9.944;2022-12-07T08:21:05;4.60;99.90
5457;DHT22;2751;49.802;9.944;2022-12-07T08:23:38;4.50;99.90
5457;DHT22;2751;49.802;9.944;2022-12-07T08:26:06;4.20;99.90
5457;DHT22;2751;49.802;9.944;2022-12-07T08:28:36;4.20;99.90
5457;DHT22;2751;49.802;9.944;2022-12-07T08:31:16;4.30;99.90
5457;DHT22;2751;49.802;9.944;2022-12-07T08:33:46;4.60;99.90
5457;DHT22;2751;49.802;9.944;2022-12-07T08:36:13;4.30;99.90
5457;DHT22;2751;49.802;9.944;2022-12-07T08:38:42;4.30;99.90
5457;DHT22;2751;49.802;9.944;2022-12-07T08:41:09;4.30;99.90
5457;DHT22;2751;49.802;9.944;2022-12-07T08:43:36;4.30;99.90
5457;DHT22;2751;49.802;9.944;2022-12-07T08:46:08;4.30;99.90
5457;DHT22;2751;49.802;9.944;2022-12-07T08:48:40;4.40;99.90
5457;DHT22;2751;49.802;9.944;2022-12-07T08:51:12;4.60;99.90
5457;DHT22;2751;49.802;9.944;2022-12-07T08:53:40;4.40;99.90
5457;DHT22;2751;49.802;9.944;2022-12-07T08:56:07;4.40;99.90
5457;DHT22;2751;49.802;9.944;2022-12-07T08:58:36;4.50;99.90
5457;DHT22;2751;49.802;9.944;2022-12-07T09:01:07;4.50;99.90
5457;DHT22;2751;49.802;9.944;2022-12-07T09:03:34;4.40;99.90
5457;DHT22;2751;49.802;9.944;2022-12-07T09:06:03;4.40;99.90
5457;DHT22;2751;49.802;9.944;2022-12-07T09:08:47;4.50;99.90
5457;DHT22;2751;49.802;9.944;2022-12-07T09:11:32;4.50;99.90
5457;DHT22;2751;49.802;9.944;2022-12-07T09:14:04;4.60;99.90
5457;DHT22;2751;49.802;9.944;2022-12-07T09:16:31;4.60;99.90
5457;DHT22;2751;49.802;9.944;2022-12-07T09:18:58;4.60;99.90
5457;DHT22;2751;49.802;9.944;2022-12-07T09:21:25;4.90;99.90
5457;DHT22;2751;49.802;9.944;2022-12-07T09:23:54;4.60;99.90
5457;DHT22;2751;49.802;9.944;2022-12-07T09:26:21;4.60;99.90
5457;DHT22;2751;49.802;9.944;2022-12-07T09:28:48;5.10;99.90
5457;DHT22;2751;49.802;9.944;2022-12-07T09:31:15;5.00;99.90
5457;DHT22;2751;49.802;9.944;2022-12-07T09:33:41;5.00;99.90
5457;DHT22;2751;49.802;9.944;2022-12-07T09:36:09;4.70;99.90
5457;DHT22;2751;49.802;9.944;2022-12-07T09:38:36;4.90;99.90
5457;DHT22;2751;49.802;9.944;2022-12-07T09:41:08;5.10;99.90
5457;DHT22;2751;49.802;9.944;2022-12-07T09:43:35;4.70;99.90
5457;DHT22;2751;49.802;9.944;2022-12-07T09:46:03;4.70;99.90
5457;DHT22;2751;49.802;9.944;2022-12-07T09:48:33;4.70;99.90
5457;DHT22;2751;49.802;9.944;2022-12-07T09:51:13;5.00;99.90
5457;DHT22;2751;49.802;9.944;2022-12-07T09:53:45;5.10;99.90
5457;DHT22;2751;49.802;9.944;2022-12-07T09:56:17;4.80;99.90
5457;DHT22;2751;49.802;9.944;2022-12-07T09:58:49;5.30;99.90
5457;DHT22;2751;49.802;9.944;2022-12-07T10:01:20;5.10;99.90
5457;DHT22;2751;49.802;9.944;2022-12-07T10:03:50;5.40;99.90
5457;DHT22;2751;49.802;9.944;2022-12-07T10:06:18;5.20;99.90
5457;DHT22;2751;49.802;9.944;2022-12-07T10:08:49;5.20;99.90
5457;DHT22;2751;49.802;9.944;2022-12-07T10:11:17;5.20;99.90
5457;DHT22;2751;49.802;9.944;2022-12-07T10:13:48;5.50;99.90
5457;DHT22;2751;49.802;9.944;2022-12-07T10:16:37;5.30;99.90
5457;DHT22;2751;49.802;9.944;2022-12-07T10:19:23;5.20;99.90
5457;DHT22;2751;49.802;9.944;2022-12-07T10:22:10;5.10;99.90
5457;DHT22;2751;49.802;9.944;2022-12-07T10:24:40;5.00;99.90
5457;DHT22;2751;49.802;9.944;2022-12-07T10:27:19;5.00;99.90
5457;DHT22;2751;49.802;9.944;2022-12-07T10:29:50;5.00;99.90
5457;DHT22;2751;49.802;9.944;2022-12-07T10:32:38;5.10;99.90
5457;DHT22;2751;49.802;9.944;2022-12-07T10:35:22;5.20;99.90
5457;DHT22;2751;49.802;9.944;2022-12-07T10:37:50;5.10;99.90
5457;DHT22;2751;49.802;9.944;2022-12-07T10:40:27;5.60;99.90
5457;DHT22;2751;49.802;9.944;2022-12-07T10:43:17;5.30;99.90
5457;DHT22;2751;49.802;9.944;2022-12-07T10:46:18;5.60;99.90
5457;DHT22;2751;49.802;9.944;2022-12-07T10:48:54;5.60;99.90
5457;DHT22;2751;49.802;9.944;2022-12-07T10:51:29;5.30;99.90
5457;DHT22;2751;49.802;9.944;2022-12-07T10:54:08;5.60;99.90
5457;DHT22;2751;49.802;9.944;2022-12-07T10:56:57;4.90;99.90
5457;DHT22;2751;49.802;9.944;2022-12-07T10:59:44;5.30;99.90
5457;DHT22;2751;49.802;9.944;2022-12-07T11:02:30;5.40;99.90
5457;DHT22;2751;49.802;9.944;2022-12-07T11:05:10;5.40;99.90
5457;DHT22;2751;49.802;9.944;2022-12-07T11:07:45;5.70;99.90
5457;DHT22;2751;49.802;9.944;2022-12-07T11:10:17;5.40;99.90
5457;DHT22;2751;49.802;9.944;2022-12-07T11:13:14;5.40;99.90
5457;DHT22;2751;49.802;9.944;2022-12-07T11:15:55;5.50;99.90
5457;DHT22;2751;49.802;9.944;2022-12-07T11:18:38;5.50;99.90
5457;DHT22;2751;49.802;9.944;2022-12-07T11:21:11;5.80;99.90
5457;DHT22;2751;49.802;9.944;2022-12-07T11:23:48;6.40;99.90
5457;DHT22;2751;49.802;9.944;2022-12-07T11:26:27;6.40;99.90
5457;DHT22;2751;49.802;9.944;2022-12-07T11:29:21;6.40;99.90
5457;DHT22;2751;49.802;9.944;2022-12-07T11:32:00;6.20;99.90
5457;DHT22;2751;49.802;9.944;2022-12-07T11:34:37;6.40;99.90
5457;DHT22;2751;49.802;9.944;2022-12-07T11:37:11;6.40;99.90
5457;DHT22;2751;49.802;9.944;2022-12-07T11:39:43;6.30;99.90
5457;DHT22;2751;49.802;9.944;2022-12-07T11:42:15;6.30;99.90
5457;DHT22;2751;49.802;9.944;2022-12-07T11:44:50;6.20;99.90
5457;DHT22;2751;49.802;9.944;2022-12-07T11:47:28;6.10;99.90
5457;DHT22;2751;49.802;9.944;2022-12-07T11:50:03;6.10;99.90
5457;DHT22;2751;49.802;9.944;2022-12-07T11:52:44;5.90;99.90
5457;DHT22;2751;49.802;9.944;2022-12-07T11:55:19;6.00;99.90
5457;DHT22;2751;49.802;9.944;2022-12-07T11:57:53;6.20;99.90
5457;DHT22;2751;49.802;9.944;2022-12-07T12:00:26;6.30;99.90
5457;DHT22;2751;49.802;9.944;2022-12-07T12:02:59;6.00;99.90
5457;DHT22;2751;49.802;9.944;2022-12-07T12:05:28;6.00;99.90
5457;DHT22;2751;49.802;9.944;2022-12-07T12:08:02;6.00;99.90
5457;DHT22;2751;49.802;9.944;2022-12-07T12:10:39;6.10;99.90
5457;DHT22;2751;49.802;9.944;2022-12-07T12:16:38;5.90;99.90
5457;DHT22;2751;49.802;9.944;2022-12-07T12:19:24;5.90;99.90
5457;DHT22;2751;49.802;9.944;2022-12-07T12:21:56;6.00;99.90
5457;DHT22;2751;49.802;9.944;2022-12-07T12:24:26;6.00;99.90
5457;DHT22;2751;49.802;9.944;2022-12-07T12:27:01;6.00;99.90
5457;DHT22;2751;49.802;9.944;2022-12-07T12:29:32;6.10;99.90
5457;DHT22;2751;49.802;9.944;2022-12-07T12:32:13;6.00;99.90
5457;DHT22;2751;49.802;9.944;2022-12-07T12:34:59;6.10;99.90
5457;DHT22;2751;49.802;9.944;2022-12-07T12:37:41;6.10;99.90
5457;DHT22;2751;49.802;9.944;2022-12-07T12:40:40;6.10;99.90
5457;DHT22;2751;49.802;9.944;2022-12-07T12:46:36;5.90;99.90
5457;DHT22;2751;49.802;9.944;2022-12-07T12:49:37;5.90;99.90
5457;DHT22;2751;49.802;9.944;2022-12-07T12:52:47;5.90;99.90
5457;DHT22;2751;49.802;9.944;2022-12-07T12:58:29;5.70;99.90
5457;DHT22;2751;49.802;9.944;2022-12-07T13:04:01;5.70;99.90
5457;DHT22;2751;49.802;9.944;2022-12-07T13:06:35;5.90;99.90
5457;DHT22;2751;49.802;9.944;2022-12-07T13:09:18;6.00;99.90
5457;DHT22;2751;49.802;9.944;2022-12-07T13:11:47;5.50;99.90
5457;DHT22;2751;49.802;9.944;2022-12-07T13:14:41;5.50;99.90
5457;DHT22;2751;49.802;9.944;2022-12-07T13:17:10;5.60;99.90
5457;DHT22;2751;49.802;9.944;2022-12-07T13:19:58;5.70;99.90
5457;DHT22;2751;49.802;9.944;2022-12-07T13:22:44;6.00;99.90
5457;DHT22;2751;49.802;9.944;2022-12-07T13:25:21;5.60;99.90
5457;DHT22;2751;49.802;9.944;2022-12-07T13:27:56;5.50;99.90
5457;DHT22;2751;49.802;9.944;2022-12-07T13:30:24;5.40;99.90
5457;DHT22;2751;49.802;9.944;2022-12-07T13:32:55;5.30;99.90
5457;DHT22;2751;49.802;9.944;2022-12-07T13:35:28;5.60;99.90
5457;DHT22;2751;49.802;9.944;2022-12-07T13:37:55;5.20;99.90
5457;DHT22;2751;49.802;9.944;2022-12-07T13:40:24;5.20;99.90
5457;DHT22;2751;49.802;9.944;2022-12-07T13:42:58;5.30;99.90
5457;DHT22;2751;49.802;9.944;2022-12-07T13:45:27;5.30;99.90
5457;DHT22;2751;49.802;9.944;2022-12-07T13:48:12;5.70;99.90
5457;DHT22;2751;49.802;9.944;2022-12-07T13:50:41;5.60;99.90
5457;DHT22;2751;49.802;9.944;2022-12-07T13:53:12;5.60;99.90
5457;DHT22;2751;49.802;9.944;2022-12-07T13:55:46;5.60;99.90
5457;DHT22;2751;49.802;9.944;2022-12-07T13:58:14;5.60;99.90
5457;DHT22;2751;49.802;9.944;2022-12-07T14:00:41;5.60;99.90
5457;DHT22;2751;49.802;9.944;2022-12-07T14:03:26;5.90;99.90
5457;DHT22;2751;49.802;9.944;2022-12-07T14:06:19;5.90;99.90
5457;DHT22;2751;49.802;9.944;2022-12-07T14:08:47;5.70;99.90
5457;DHT22;2751;49.802;9.944;2022-12-07T14:11:18;5.70;99.90
5457;DHT22;2751;49.802;9.944;2022-12-07T14:13:56;5.70;99.90
5457;DHT22;2751;49.802;9.944;2022-12-07T14:16:27;6.10;99.90
5457;DHT22;2751;49.802;9.944;2022-12-07T14:18:55;5.80;99.90
5457;DHT22;2751;49.802;9.944;2022-12-07T14:21:24;5.50;99.90
5457;DHT22;2751;49.802;9.944;2022-12-07T14:24:15;5.90;99.90
5457;DHT22;2751;49.802;9.944;2022-12-07T14:26:45;5.90;99.90
5457;DHT22;2751;49.802;9.944;2022-12-07T14:29:32;5.90;99.90
5457;DHT22;2751;49.802;9.944;2022-12-07T14:32:19;6.00;99.90
5457;DHT22;2751;49.802;9.944;2022-12-07T14:34:59;5.90;99.90
5457;DHT22;2751;49.802;9.944;2022-12-07T14:37:27;6.00;99.90
5457;DHT22;2751;49.802;9.944;2022-12-07T14:39:55;6.10;99.90
5457;DHT22;2751;49.802;9.944;2022-12-07T14:42:26;6.20;99.90
5457;DHT22;2751;49.802;9.944;2022-12-07T14:44:54;6.20;99.90
5457;DHT22;2751;49.802;9.944;2022-12-07T14:47:21;6.00;99.90
5457;DHT22;2751;49.802;9.944;2022-12-07T14:49:48;6.10;99.90
5457;DHT22;2751;49.802;9.944;2022-12-07T14:52:18;5.70;99.90
5457;DHT22;2751;49.802;9.944;2022-12-07T14:54:46;5.60;99.90
5457;DHT22;2751;49.802;9.944;2022-12-07T14:57:13;5.50;99.90
5457;DHT22;2751;49.802;9.944;2022-12-07T14:59:41;5.40;99.90
5457;DHT22;2751;49.802;9.944;2022-12-07T15:02:11;5.30;99.90
5457;DHT22;2751;49.802;9.944;2022-12-07T15:04:39;5.20;99.90
5457;DHT22;2751;49.802;9.944;2022-12-07T15:07:10;5.20;99.90
5457;DHT22;2751;49.802;9.944;2022-12-07T15:09:39;5.10;99.90
5457;DHT22;2751;49.802;9.944;2022-12-07T15:12:06;5.10;99.90
5457;DHT22;2751;49.802;9.944;2022-12-07T15:14:33;5.10;99.90
5457;DHT22;2751;49.802;9.944;2022-12-07T15:17:03;5.10;99.90
5457;DHT22;2751;49.802;9.944;2022-12-07T15:19:30;5.30;99.90
5457;DHT22;2751;49.802;9.944;2022-12-07T15:21:57;5.00;99.90
5457;DHT22;2751;49.802;9.944;2022-12-07T15:24:25;5.00;99.90
5457;DHT22;2751;49.802;9.944;2022-12-07T15:26:53;5.30;99.90
5457;DHT22;2751;49.802;9.944;2022-12-07T15:29:20;5.10;99.90
5457;DHT22;2751;49.802;9.944;2022-12-07T15:31:48;5.00;99.90
5457;DHT22;2751;49.802;9.944;2022-12-07T15:34:16;5.00;99.90
5457;DHT22;2751;49.802;9.944;2022-12-07T15:36:43;5.00;99.90
5457;DHT22;2751;49.802;9.944;2022-12-07T15:39:10;5.00;99.90
5457;DHT22;2751;49.802;9.944;2022-12-07T15:41:37;5.00;99.90
5457;DHT22;2751;49.802;9.944;2022-12-07T15:44:05;5.20;99.90
5457;DHT22;2751;49.802;9.944;2022-12-07T15:46:49;5.00;99.90
5457;DHT22;2751;49.802;9.944;2022-12-07T15:49:18;5.40;99.90
5457;DHT22;2751;49.802;9.944;2022-12-07T15:51:46;4.90;99.90
5457;DHT22;2751;49.802;9.944;2022-12-07T15:54:17;4.90;99.90
5457;DHT22;2751;49.802;9.944;2022-12-07T15:56:45;4.90;99.90
5457;DHT22;2751;49.802;9.944;2022-12-07T15:59:12;5.30;99.90
5457;DHT22;2751;49.802;9.944;2022-12-07T16:01:39;5.20;99.90
5457;DHT22;2751;49.802;9.944;2022-12-07T16:04:06;5.00;99.90
5457;DHT22;2751;49.802;9.944;2022-12-07T16:06:34;5.10;99.90
5457;DHT22;2751;49.802;9.944;2022-12-07T16:09:01;5.40;99.90
5457;DHT22;2751;49.802;9.944;2022-12-07T16:11:28;5.00;99.90
5457;DHT22;2751;49.802;9.944;2022-12-07T16:13:55;5.00;99.90
5457;DHT22;2751;49.802;9.944;2022-12-07T16:16:22;5.10;99.90
5457;DHT22;2751;49.802;9.944;2022-12-07T16:18:50;4.70;99.90
5457;DHT22;2751;49.802;9.944;2022-12-07T16:21:18;4.30;99.90
5457;DHT22;2751;49.802;9.944;2022-12-07T16:23:46;4.00;99.90
5457;DHT22;2751;49.802;9.944;2022-12-07T16:26:15;3.80;99.90
5457;DHT22;2751;49.802;9.944;2022-12-07T16:28:42;3.90;99.90
5457;DHT22;2751;49.802;9.944;2022-12-07T16:31:12;4.10;99.90
5457;DHT22;2751;49.802;9.944;2022-12-07T16:33:40;3.70;99.90
5457;DHT22;2751;49.802;9.944;2022-12-07T16:36:09;3.70;99.90
5457;DHT22;2751;49.802;9.944;2022-12-07T16:38:37;3.60;99.90
5457;DHT22;2751;49.802;9.944;2022-12-07T16:41:06;3.40;99.90
5457;DHT22;2751;49.802;9.944;2022-12-07T16:43:34;3.40;99.90
5457;DHT22;2751;49.802;9.944;2022-12-07T16:46:01;3.40;99.90
5457;DHT22;2751;49.802;9.944;2022-12-07T16:48:29;3.40;99.90
5457;DHT22;2751;49.802;9.944;2022-12-07T16:50:56;3.40;99.90
5457;DHT22;2751;49.802;9.944;2022-12-07T16:53:24;3.40;99.90
5457;DHT22;2751;49.802;9.944;2022-12-07T16:55:52;3.40;99.90
5457;DHT22;2751;49.802;9.944;2022-12-07T16:58:20;3.40;99.90